Time;durP1;ratioP1;P1;durP2;ratioP2;P2;SDS_P1;SDS_P2;PMS_P1;PMS_P2;Temp;Humidity;BMP_temperature;BMP_pressure;BME280_temperature;BME280_humidity;BME280_pressure;Samples;Min_cycle;Max_cycle;Signal;HPM_P1;HPM_P2
2021/12/30 00:00:13;;;;;;;6.90;1.98;;;14.90;99.90;;;;;;5075068;28;20176;-67
2021/12/30 00:02:43;;;;;;;11.50;2.70;;;14.80;99.90;;;;;;5080940;28;20269;-66
2021/12/30 00:05:10;;;;;;;6.88;2.22;;;14.80;99.90;;;;;;5073261;28;20474;-65
2021/12/30 00:07:40;;;;;;;6.45;2.05;;;14.90;99.90;;;;;;5077064;28;20263;-65
2021/12/30 00:10:08;;;;;;;6.70;2.35;;;14.80;99.90;;;;;;5075504;28;20183;-66
2021/12/30 00:12:34;;;;;;;7.85;2.63;;;14.80;99.90;;;;;;5079508;28;20192;-66
2021/12/30 00:14:59;;;;;;;8.05;2.70;;;14.80;99.90;;;;;;5090816;28;20172;-66
2021/12/30 00:17:27;;;;;;;7.50;2.20;;;14.80;99.90;;;;;;5108359;28;20180;-64
2021/12/30 00:19:55;;;;;;;6.80;2.28;;;14.70;99.90;;;;;;5072933;28;20267;-66
2021/12/30 00:22:21;;;;;;;8.75;2.22;;;14.70;99.90;;;;;;5075605;28;20330;-64
2021/12/30 00:24:49;;;;;;;6.90;2.15;;;14.70;99.90;;;;;;5077860;28;20231;-66
2021/12/30 00:27:14;;;;;;;6.97;2.20;;;14.70;99.90;;;;;;5075564;28;20175;-65
2021/12/30 00:29:44;;;;;;;9.25;2.22;;;14.60;99.90;;;;;;5071843;28;20168;-66
2021/12/30 00:32:10;;;;;;;7.22;2.20;;;14.60;99.90;;;;;;5075113;28;20197;-66
2021/12/30 00:34:36;;;;;;;8.90;2.30;;;14.50;99.90;;;;;;5075128;28;20288;-66
2021/12/30 00:37:06;;;;;;;5.95;2.05;;;14.50;99.90;;;;;;5074868;28;20172;-65
2021/12/30 00:39:32;;;;;;;10.27;2.38;;;14.40;99.90;;;;;;5074158;28;20191;-66
2021/12/30 00:42:00;;;;;;;7.63;2.25;;;14.40;99.90;;;;;;5074614;28;20200;-66
2021/12/30 00:44:28;;;;;;;7.35;2.22;;;14.30;99.90;;;;;;5073386;28;20275;-66
2021/12/30 00:46:54;;;;;;;6.03;2.00;;;14.30;99.90;;;;;;5107136;28;20195;-66
2021/12/30 00:49:20;;;;;;;6.60;2.10;;;14.30;99.90;;;;;;5070855;28;20201;-62
2021/12/30 00:51:50;;;;;;;7.47;2.53;;;14.30;99.90;;;;;;5073124;28;20181;-66
2021/12/30 00:54:18;;;;;;;6.05;2.17;;;14.30;99.90;;;;;;5071774;28;20176;-66
2021/12/30 00:56:44;;;;;;;7.88;2.50;;;14.30;99.90;;;;;;5072768;28;20196;-66
2021/12/30 00:59:10;;;;;;;8.27;2.28;;;14.30;99.90;;;;;;5076548;28;20168;-65
2021/12/30 01:01:39;;;;;;;10.07;2.28;;;14.30;99.90;;;;;;5070272;28;20185;-65
2021/12/30 01:04:04;;;;;;;6.53;2.05;;;14.20;99.90;;;;;;5071581;28;20227;-66
2021/12/30 01:06:30;;;;;;;5.35;2.10;;;14.20;99.90;;;;;;5076224;28;20253;-63
2021/12/30 01:08:57;;;;;;;4.18;1.80;;;14.20;99.90;;;;;;5074187;28;20176;-65
2021/12/30 01:11:28;;;;;;;9.05;2.58;;;14.20;99.90;;;;;;5074754;28;20275;-66
2021/12/30 01:14:15;;;;;;;6.28;2.40;;;14.10;99.90;;;;;;5077382;28;20229;-65
2021/12/30 01:16:44;;;;;;;6.25;2.28;;;14.20;99.90;;;;;;5087525;28;20186;-65
2021/12/30 01:21:54;;;;;;;7.50;2.20;;;14.10;99.90;;;;;;5094789;28;20210;-65
2021/12/30 01:24:23;;;;;;;4.47;2.00;;;14.10;99.90;;;;;;5078050;28;20223;-66
2021/12/30 01:26:49;;;;;;;7.90;2.13;;;14.10;99.90;;;;;;5080453;28;20179;-65
2021/12/30 01:29:15;;;;;;;4.88;1.88;;;14.10;99.90;;;;;;5075034;28;20171;-65
2021/12/30 01:31:40;;;;;;;7.30;2.10;;;14.10;99.90;;;;;;5083189;28;20461;-65
2021/12/30 01:34:08;;;;;;;8.15;2.10;;;14.10;99.90;;;;;;5067730;28;20205;-66
2021/12/30 01:36:36;;;;;;;5.30;1.95;;;14.10;99.90;;;;;;5075857;28;20191;-66
2021/12/30 01:39:02;;;;;;;5.80;2.13;;;14.10;99.90;;;;;;5077207;28;20172;-66
2021/12/30 01:41:30;;;;;;;6.53;1.90;;;14.10;99.90;;;;;;5075691;28;20187;-65
2021/12/30 01:43:56;;;;;;;5.22;2.22;;;14.10;99.90;;;;;;5104605;28;20177;-65
2021/12/30 01:46:24;;;;;;;4.97;1.67;;;14.10;99.90;;;;;;5070611;28;20207;-66
2021/12/30 01:48:56;;;;;;;5.25;2.00;;;14.10;99.90;;;;;;5067678;28;20176;-64
2021/12/30 01:51:22;;;;;;;5.55;1.73;;;14.20;99.90;;;;;;5088933;28;20230;-66
2021/12/30 01:53:52;;;;;;;4.95;1.90;;;14.10;99.90;;;;;;5076517;28;20231;-66
2021/12/30 01:56:20;;;;;;;6.28;2.00;;;14.20;99.90;;;;;;5071192;28;20180;-66
2021/12/30 01:58:47;;;;;;;5.35;1.70;;;14.10;99.90;;;;;;5077846;28;20183;-66
2021/12/30 02:01:12;;;;;;;4.68;1.95;;;14.10;99.90;;;;;;5076071;28;20214;-63
2021/12/30 02:03:40;;;;;;;6.57;2.10;;;14.20;99.90;;;;;;5077129;28;20187;-66
2021/12/30 02:06:08;;;;;;;4.78;1.80;;;14.20;99.90;;;;;;5075154;28;20204;-64
2021/12/30 02:08:34;;;;;;;5.35;2.05;;;14.10;99.90;;;;;;5079664;28;20218;-66
2021/12/30 02:11:02;;;;;;;6.28;1.90;;;14.20;99.90;;;;;;5078297;28;20525;-66
2021/12/30 02:13:34;;;;;;;5.72;1.80;;;14.20;99.90;;;;;;5075126;28;20182;-66
2021/12/30 02:16:02;;;;;;;5.88;1.80;;;14.20;99.90;;;;;;5075653;28;20199;-66
2021/12/30 02:18:34;;;;;;;4.63;1.85;;;14.10;99.90;;;;;;5076368;28;20252;-65
2021/12/30 02:21:03;;;;;;;5.57;1.77;;;14.20;99.90;;;;;;5074488;28;20184;-66
2021/12/30 02:23:33;;;;;;;5.20;1.73;;;14.20;99.90;;;;;;5072260;28;20204;-66
2021/12/30 02:26:13;;;;;;;5.40;1.80;;;14.20;99.90;;;;;;5069450;28;20212;-66
2021/12/30 02:28:41;;;;;;;4.65;1.58;;;14.20;99.90;;;;;;5072894;28;20176;-64
2021/12/30 02:31:13;;;;;;;5.13;1.60;;;14.20;99.90;;;;;;5074247;28;20202;-65
2021/12/30 02:33:39;;;;;;;7.15;1.90;;;14.20;99.90;;;;;;5074822;28;20567;-65
2021/12/30 02:36:05;;;;;;;4.57;2.03;;;14.20;99.90;;;;;;5108488;28;20263;-66
2021/12/30 02:38:34;;;;;;;5.00;1.48;;;14.20;99.90;;;;;;5074167;28;20252;-65
2021/12/30 02:41:03;;;;;;;5.50;1.73;;;14.20;99.90;;;;;;5106487;27;20205;-65
2021/12/30 02:43:31;;;;;;;5.57;1.65;;;14.20;99.90;;;;;;5074632;28;20411;-65
2021/12/30 02:45:58;;;;;;;5.32;1.63;;;14.10;99.90;;;;;;5101976;28;20228;-65
2021/12/30 02:48:37;;;;;;;3.97;1.90;;;14.20;99.90;;;;;;5072375;28;20205;-65
2021/12/30 02:51:07;;;;;;;3.80;1.55;;;14.10;99.90;;;;;;5074665;28;20180;-66
2021/12/30 02:53:33;;;;;;;4.07;1.70;;;14.10;99.90;;;;;;5106116;28;20199;-66
2021/12/30 02:56:02;;;;;;;6.28;1.80;;;14.10;99.90;;;;;;5075866;28;20205;-66
2021/12/30 02:58:28;;;;;;;4.95;1.70;;;14.10;99.90;;;;;;5074789;28;20188;-66
2021/12/30 03:01:19;;;;;;;3.53;1.45;;;14.10;99.90;;;;;;5073166;28;20271;-67
2021/12/30 03:03:45;;;;;;;4.47;1.77;;;14.10;99.90;;;;;;5069069;28;20198;-66
2021/12/30 03:06:13;;;;;;;6.53;1.88;;;14.10;99.90;;;;;;5099381;28;20431;-66
2021/12/30 03:08:42;;;;;;;5.63;2.13;;;14.10;99.90;;;;;;5075009;28;20200;-67
2021/12/30 03:11:10;;;;;;;5.53;1.83;;;14.10;99.90;;;;;;5073210;28;20168;-66
2021/12/30 03:13:43;;;;;;;6.07;1.75;;;14.10;99.90;;;;;;5071837;28;20234;-66
2021/12/30 03:16:20;;;;;;;6.88;1.77;;;14.00;99.90;;;;;;5069675;28;20234;-65
2021/12/30 03:18:48;;;;;;;4.82;1.75;;;14.00;99.90;;;;;;5076030;28;20182;-66
2021/12/30 03:21:16;;;;;;;9.32;2.20;;;14.00;99.90;;;;;;5079251;28;20199;-67
2021/12/30 03:23:42;;;;;;;4.20;1.77;;;13.90;99.90;;;;;;5077729;28;20179;-67
2021/12/30 03:26:08;;;;;;;5.03;1.90;;;13.90;99.90;;;;;;5079937;28;20331;-66
2021/12/30 03:28:35;;;;;;;6.45;2.17;;;13.80;99.90;;;;;;5073760;28;20197;-67
2021/12/30 03:31:01;;;;;;;5.22;1.63;;;13.80;99.90;;;;;;5072434;28;20729;-67
2021/12/30 03:33:29;;;;;;;6.57;1.90;;;13.80;99.90;;;;;;5072370;28;20541;-67
2021/12/30 03:35:59;;;;;;;3.72;1.50;;;13.80;99.90;;;;;;5066313;28;20209;-66
2021/12/30 03:38:28;;;;;;;5.07;1.65;;;13.80;99.90;;;;;;5077887;28;20183;-67
2021/12/30 03:40:54;;;;;;;4.63;1.50;;;13.70;99.90;;;;;;5074637;28;20180;-66
2021/12/30 03:43:19;;;;;;;6.55;1.75;;;13.70;99.90;;;;;;5071710;28;20192;-67
2021/12/30 03:45:45;;;;;;;4.57;1.60;;;13.70;99.90;;;;;;5073749;28;20207;-66
2021/12/30 03:48:11;;;;;;;5.07;1.50;;;13.70;99.90;;;;;;5079401;28;20392;-66
2021/12/30 03:50:43;;;;;;;9.02;1.75;;;13.70;99.90;;;;;;5077519;28;20196;-67
2021/12/30 03:53:13;;;;;;;4.10;1.63;;;13.60;99.90;;;;;;5074751;28;20185;-67
2021/12/30 03:55:43;;;;;;;5.88;1.95;;;13.60;99.90;;;;;;5071209;28;20194;-67
2021/12/30 03:58:13;;;;;;;5.03;1.90;;;13.50;99.90;;;;;;5072143;28;20203;-67
2021/12/30 04:00:39;;;;;;;4.82;2.00;;;13.50;99.90;;;;;;5074933;28;20180;-67
2021/12/30 04:03:07;;;;;;;3.92;1.67;;;13.40;99.90;;;;;;5072318;28;20190;-67
2021/12/30 04:05:33;;;;;;;5.57;1.67;;;13.30;99.90;;;;;;5075460;28;20200;-67
2021/12/30 04:07:59;;;;;;;3.33;1.58;;;13.20;99.90;;;;;;5073727;28;20229;-67
2021/12/30 04:10:24;;;;;;;3.17;1.40;;;13.20;99.90;;;;;;5075915;28;20180;-67
2021/12/30 04:12:56;;;;;;;3.42;1.60;;;13.20;99.90;;;;;;5073404;28;20245;-67
2021/12/30 04:15:22;;;;;;;3.33;1.60;;;13.10;99.90;;;;;;5076156;28;20191;-67
2021/12/30 04:17:47;;;;;;;5.78;1.65;;;13.10;99.90;;;;;;5074823;28;20198;-67
2021/12/30 04:20:14;;;;;;;5.53;1.70;;;13.10;99.90;;;;;;5071004;28;20197;-67
2021/12/30 04:22:41;;;;;;;4.80;1.55;;;13.00;99.90;;;;;;5071509;28;20339;-67
2021/12/30 04:25:12;;;;;;;4.38;1.40;;;13.00;99.90;;;;;;5066104;28;20214;-67
2021/12/30 04:27:38;;;;;;;3.13;1.60;;;13.00;99.90;;;;;;5071001;28;20204;-68
2021/12/30 04:30:07;;;;;;;4.28;1.63;;;13.00;99.90;;;;;;5105959;28;20196;-68
2021/12/30 04:32:32;;;;;;;5.88;1.92;;;13.00;99.90;;;;;;5077924;28;20176;-68
2021/12/30 04:34:58;;;;;;;4.57;1.48;;;12.90;99.90;;;;;;5105495;28;20813;-68
2021/12/30 04:37:24;;;;;;;5.15;1.42;;;13.00;99.90;;;;;;5073378;28;20180;-68
2021/12/30 04:39:52;;;;;;;3.83;1.58;;;12.90;99.90;;;;;;5075132;28;20180;-69
2021/12/30 04:42:23;;;;;;;3.35;1.48;;;12.90;99.90;;;;;;5076355;28;20278;-68
2021/12/30 04:44:48;;;;;;;4.15;1.50;;;12.90;99.90;;;;;;5072617;28;20230;-68
2021/12/30 04:47:17;;;;;;;6.25;1.85;;;12.90;99.90;;;;;;5077034;28;20168;-68
2021/12/30 04:49:42;;;;;;;4.13;1.80;;;12.90;99.90;;;;;;5073755;28;20206;-68
2021/12/30 04:52:08;;;;;;;2.50;1.58;;;12.90;99.90;;;;;;5077191;28;20184;-68
2021/12/30 04:54:34;;;;;;;5.38;1.60;;;12.90;99.90;;;;;;5107802;28;20188;-69
2021/12/30 04:57:02;;;;;;;4.13;1.98;;;12.80;99.90;;;;;;5102203;28;20284;-68
2021/12/30 04:59:30;;;;;;;6.03;1.73;;;12.80;99.90;;;;;;5076048;28;20180;-68
2021/12/30 05:01:58;;;;;;;5.00;1.83;;;12.80;99.90;;;;;;5073646;28;20192;-68
2021/12/30 05:04:26;;;;;;;2.85;1.50;;;12.80;99.90;;;;;;5071334;28;20227;-68
2021/12/30 05:06:54;;;;;;;4.90;1.88;;;12.80;99.90;;;;;;5076628;28;20199;-67
2021/12/30 05:09:24;;;;;;;2.97;1.50;;;12.80;99.90;;;;;;5073943;28;20183;-68
2021/12/30 05:11:52;;;;;;;3.15;1.48;;;12.80;99.90;;;;;;5074786;28;20203;-68
2021/12/30 05:14:17;;;;;;;3.47;1.65;;;12.80;99.90;;;;;;5076167;28;20183;-68
2021/12/30 05:16:45;;;;;;;4.57;1.80;;;12.80;99.90;;;;;;5082049;28;20179;-68
2021/12/30 05:19:11;;;;;;;5.47;1.98;;;12.90;99.90;;;;;;5076026;28;20210;-68
2021/12/30 05:21:39;;;;;;;3.42;1.90;;;12.80;99.90;;;;;;5073747;28;20203;-68
2021/12/30 05:24:05;;;;;;;5.03;2.05;;;12.90;99.90;;;;;;5072054;28;20183;-68
2021/12/30 05:26:34;;;;;;;5.32;2.05;;;12.90;99.90;;;;;;5073601;28;20207;-68
2021/12/30 05:29:00;;;;;;;4.03;1.77;;;12.90;99.90;;;;;;5097264;28;20248;-68
2021/12/30 05:31:26;;;;;;;4.60;1.92;;;12.90;99.90;;;;;;5074586;28;20176;-68
2021/12/30 05:33:52;;;;;;;4.00;1.70;;;12.90;99.90;;;;;;5064086;28;20188;-68
2021/12/30 05:36:19;;;;;;;4.18;1.75;;;12.90;99.90;;;;;;5075414;28;20223;-67
2021/12/30 05:38:45;;;;;;;3.25;1.63;;;12.90;99.90;;;;;;5073219;28;20180;-67
2021/12/30 05:41:10;;;;;;;5.03;2.03;;;12.90;99.90;;;;;;5070544;28;20175;-67
2021/12/30 05:43:36;;;;;;;4.32;1.85;;;12.90;99.90;;;;;;5069742;28;20199;-68
2021/12/30 05:46:05;;;;;;;4.05;1.85;;;12.90;99.90;;;;;;5071101;28;20196;-67
2021/12/30 05:48:31;;;;;;;5.13;1.50;;;12.90;99.90;;;;;;5079357;28;20180;-68
2021/12/30 05:50:59;;;;;;;3.70;1.80;;;13.00;99.90;;;;;;5071321;28;20172;-67
2021/12/30 05:53:27;;;;;;;2.42;1.30;;;13.00;99.90;;;;;;5076931;28;20213;-67
2021/12/30 05:55:55;;;;;;;2.90;1.23;;;13.00;99.90;;;;;;5076481;28;20161;-67
2021/12/30 05:58:21;;;;;;;1.75;1.10;;;13.00;99.90;;;;;;5074423;28;20176;-67
2021/12/30 06:00:48;;;;;;;2.97;1.40;;;13.10;99.90;;;;;;5075625;28;20183;-67
2021/12/30 06:03:15;;;;;;;2.13;1.13;;;13.10;99.90;;;;;;5074259;28;20374;-67
2021/12/30 06:05:43;;;;;;;3.95;1.40;;;13.10;99.90;;;;;;5075036;28;20199;-67
2021/12/30 06:08:08;;;;;;;5.15;1.50;;;13.20;99.90;;;;;;5070322;28;20205;-67
2021/12/30 06:10:34;;;;;;;3.33;1.30;;;13.20;99.90;;;;;;5077660;28;20181;-68
2021/12/30 06:12:59;;;;;;;2.50;1.23;;;13.20;99.90;;;;;;5075826;28;20184;-67
2021/12/30 06:15:25;;;;;;;2.47;1.35;;;13.30;99.90;;;;;;5076701;28;20223;-67
2021/12/30 06:17:51;;;;;;;2.13;1.30;;;13.30;99.90;;;;;;5074627;28;20192;-67
2021/12/30 06:20:16;;;;;;;3.67;1.55;;;13.30;99.90;;;;;;5074864;28;20191;-68
2021/12/30 06:22:44;;;;;;;4.18;1.95;;;13.40;99.90;;;;;;5081987;28;20202;-67
2021/12/30 06:25:12;;;;;;;2.95;1.60;;;13.40;99.90;;;;;;5071590;28;20372;-67
2021/12/30 06:27:38;;;;;;;2.85;1.60;;;13.40;99.90;;;;;;5107204;28;20263;-67
2021/12/30 06:30:08;;;;;;;3.40;1.75;;;13.40;99.90;;;;;;5063120;28;20350;-67
2021/12/30 06:32:36;;;;;;;2.25;1.38;;;13.40;99.90;;;;;;5072752;28;20191;-68
2021/12/30 06:35:07;;;;;;;5.55;4.13;;;13.50;99.90;;;;;;5073628;28;20179;-67
2021/12/30 06:37:34;;;;;;;4.20;3.17;;;13.50;99.90;;;;;;5072411;28;20311;-67
2021/12/30 06:40:00;;;;;;;3.10;2.03;;;13.50;99.90;;;;;;5108690;27;20259;-68
2021/12/30 06:42:25;;;;;;;2.35;1.70;;;13.50;99.90;;;;;;5106648;27;20278;-68
2021/12/30 06:44:53;;;;;;;2.55;1.50;;;13.60;99.90;;;;;;5074893;28;20204;-68
2021/12/30 06:47:21;;;;;;;3.28;1.60;;;13.60;99.90;;;;;;5076045;28;20214;-67
2021/12/30 06:49:46;;;;;;;3.90;1.60;;;13.60;99.90;;;;;;5073747;28;20394;-67
2021/12/30 06:52:13;;;;;;;2.03;1.40;;;13.60;99.90;;;;;;5067481;28;20427;-67
2021/12/30 06:54:39;;;;;;;1.83;1.20;;;13.70;99.90;;;;;;5075107;28;20201;-67
2021/12/30 06:57:08;;;;;;;2.58;1.35;;;13.70;99.90;;;;;;5071768;28;20431;-67
2021/12/30 06:59:35;;;;;;;2.15;1.15;;;13.80;99.90;;;;;;5069264;28;20191;-67
2021/12/30 07:02:01;;;;;;;2.58;1.58;;;13.80;99.90;;;;;;5071912;28;20258;-68
2021/12/30 07:04:29;;;;;;;2.13;1.30;;;13.90;99.90;;;;;;5073487;28;20168;-67
2021/12/30 07:06:55;;;;;;;2.90;1.25;;;13.90;99.90;;;;;;5074222;28;20202;-67
2021/12/30 07:09:21;;;;;;;2.92;1.58;;;13.90;99.90;;;;;;5074673;28;20263;-67
2021/12/30 07:11:49;;;;;;;2.25;1.40;;;13.90;99.90;;;;;;5068491;28;20204;-67
2021/12/30 07:14:17;;;;;;;2.55;1.10;;;14.00;99.90;;;;;;5073980;28;20195;-67
2021/12/30 07:16:47;;;;;;;2.85;1.30;;;14.00;99.90;;;;;;5071275;28;20196;-67
2021/12/30 07:19:14;;;;;;;2.17;1.00;;;14.10;99.90;;;;;;5072416;28;20207;-67
2021/12/30 07:21:40;;;;;;;1.58;0.85;;;14.10;99.90;;;;;;5075762;28;20188;-67
2021/12/30 07:24:06;;;;;;;1.52;1.00;;;14.20;99.90;;;;;;5072985;28;20184;-67
2021/12/30 07:26:32;;;;;;;1.10;0.73;;;14.20;99.90;;;;;;5068615;28;20214;-67
2021/12/30 07:28:58;;;;;;;0.98;0.60;;;14.30;99.90;;;;;;5075200;28;20183;-67
2021/12/30 07:31:24;;;;;;;0.60;0.60;;;14.40;99.90;;;;;;5073853;28;20169;-66
2021/12/30 07:33:49;;;;;;;1.20;0.70;;;14.50;99.90;;;;;;5075556;28;20192;-67
2021/12/30 07:36:15;;;;;;;0.45;0.38;;;14.50;99.90;;;;;;5070954;28;20176;-66
2021/12/30 07:38:40;;;;;;;2.05;0.68;;;14.60;99.90;;;;;;5072151;28;20225;-66
2021/12/30 07:41:08;;;;;;;2.33;0.80;;;14.70;99.90;;;;;;5072718;28;20207;-67
2021/12/30 07:43:34;;;;;;;2.20;0.82;;;14.80;99.90;;;;;;5067624;28;20437;-67
2021/12/30 07:46:07;;;;;;;0.68;0.57;;;14.90;99.90;;;;;;5073733;28;20191;-66
2021/12/30 07:48:36;;;;;;;1.08;0.50;;;15.00;99.90;;;;;;5070490;28;20292;-66
2021/12/30 07:51:02;;;;;;;0.35;0.30;;;15.10;99.90;;;;;;5073843;28;20271;-67
2021/12/30 07:53:30;;;;;;;0.95;0.43;;;15.20;99.90;;;;;;5075673;28;20192;-67
2021/12/30 07:55:55;;;;;;;0.50;0.40;;;15.30;99.90;;;;;;5072939;28;20263;-67
2021/12/30 07:58:21;;;;;;;0.60;0.40;;;15.40;99.90;;;;;;5072811;28;20442;-67
2021/12/30 08:00:51;;;;;;;1.38;0.50;;;15.40;99.90;;;;;;5091413;28;20439;-67
2021/12/30 08:03:19;;;;;;;0.30;0.30;;;15.50;99.90;;;;;;5074385;28;20164;-67
2021/12/30 08:05:45;;;;;;;0.38;0.30;;;15.50;99.90;;;;;;5076630;28;20211;-67
2021/12/30 08:08:16;;;;;;;0.40;0.28;;;15.60;99.90;;;;;;5070297;28;20168;-67
2021/12/30 08:10:41;;;;;;;0.85;0.30;;;15.70;99.90;;;;;;5072322;28;20191;-67
2021/12/30 08:13:07;;;;;;;0.22;0.20;;;15.70;99.90;;;;;;5070567;28;20188;-67
2021/12/30 08:15:35;;;;;;;0.30;0.30;;;15.70;99.90;;;;;;5077553;28;20248;-67
2021/12/30 08:18:01;;;;;;;0.30;0.30;;;15.80;99.90;;;;;;5077877;28;20271;-67
2021/12/30 08:20:28;;;;;;;0.70;0.32;;;15.80;99.90;;;;;;5084648;28;20258;-67
2021/12/30 08:22:59;;;;;;;0.28;0.25;;;15.90;99.90;;;;;;5094108;28;20354;-67
2021/12/30 08:25:25;;;;;;;0.20;0.13;;;15.90;99.90;;;;;;5072682;28;20231;-67
2021/12/30 08:27:56;;;;;;;1.15;0.75;;;16.00;99.90;;;;;;5077465;28;20211;-68
2021/12/30 08:30:22;;;;;;;1.77;0.68;;;16.00;99.90;;;;;;5069780;28;20183;-67
2021/12/30 08:32:50;;;;;;;0.82;0.50;;;16.00;99.90;;;;;;5088369;28;20211;-67
2021/12/30 08:35:17;;;;;;;0.70;0.40;;;16.10;99.90;;;;;;5091486;28;20399;-67
2021/12/30 08:37:43;;;;;;;0.35;0.30;;;16.10;99.90;;;;;;5077257;28;20180;-67
2021/12/30 08:40:13;;;;;;;1.00;0.40;;;16.10;99.90;;;;;;5071643;28;20196;-67
2021/12/30 08:42:47;;;;;;;0.60;0.30;;;16.10;99.90;;;;;;5076101;28;20199;-67
2021/12/30 08:45:14;;;;;;;0.17;0.10;;;16.10;99.90;;;;;;5111686;28;20287;-67
2021/12/30 08:47:40;;;;;;;0.30;0.20;;;16.20;99.90;;;;;;5074698;28;20273;-68
2021/12/30 08:50:13;;;;;;;0.30;0.22;;;16.20;99.90;;;;;;5075359;28;20181;-68
2021/12/30 08:52:40;;;;;;;0.13;0.13;;;16.20;99.90;;;;;;5075309;28;20218;-68
2021/12/30 08:55:06;;;;;;;0.38;0.30;;;16.20;99.90;;;;;;5077042;28;20222;-67
2021/12/30 08:57:34;;;;;;;0.60;0.38;;;16.20;99.90;;;;;;5075176;28;20196;-67
2021/12/30 09:00:00;;;;;;;0.40;0.25;;;16.30;99.90;;;;;;5075490;28;20458;-67
2021/12/30 09:02:28;;;;;;;0.28;0.20;;;16.20;99.90;;;;;;5080068;28;20244;-67
2021/12/30 09:04:54;;;;;;;0.17;0.17;;;16.30;99.90;;;;;;5068835;28;20244;-67
2021/12/30 09:07:22;;;;;;;0.20;0.20;;;16.30;99.90;;;;;;5075766;28;20550;-67
2021/12/30 09:09:47;;;;;;;0.52;0.40;;;16.30;99.90;;;;;;5083078;28;20186;-67
2021/12/30 09:12:17;;;;;;;0.50;0.32;;;16.40;99.90;;;;;;5077837;28;20192;-67
2021/12/30 09:14:45;;;;;;;0.50;0.30;;;16.40;99.90;;;;;;5082982;28;20164;-67
2021/12/30 09:17:13;;;;;;;0.57;0.35;;;16.40;99.90;;;;;;5086087;28;20219;-67
2021/12/30 09:19:39;;;;;;;0.30;0.30;;;16.50;99.90;;;;;;5106711;28;20255;-68
2021/12/30 09:22:07;;;;;;;1.00;0.60;;;16.50;99.90;;;;;;5069088;28;20228;-67
2021/12/30 09:24:35;;;;;;;0.55;0.30;;;16.50;99.90;;;;;;5077122;28;20188;-67
2021/12/30 09:27:01;;;;;;;0.20;0.20;;;16.60;99.90;;;;;;5068688;28;20329;-67
2021/12/30 09:29:27;;;;;;;0.40;0.38;;;16.60;99.90;;;;;;5075267;28;20175;-67
2021/12/30 09:31:57;;;;;;;0.45;0.35;;;16.60;99.90;;;;;;5076152;28;20176;-67
2021/12/30 09:34:26;;;;;;;0.22;0.20;;;16.70;99.90;;;;;;5075982;28;20192;-67
2021/12/30 09:36:52;;;;;;;0.50;0.30;;;16.70;99.90;;;;;;5108488;28;20184;-67
2021/12/30 09:39:22;;;;;;;0.28;0.28;;;16.70;99.90;;;;;;5076563;28;20183;-67
2021/12/30 09:41:48;;;;;;;0.40;0.30;;;16.80;99.90;;;;;;5105210;28;20192;-68
2021/12/30 09:44:18;;;;;;;0.38;0.30;;;16.80;99.90;;;;;;5075780;28;20283;-67
2021/12/30 09:46:45;;;;;;;0.30;0.30;;;16.80;99.90;;;;;;5076912;28;20192;-66
2021/12/30 09:49:17;;;;;;;0.30;0.30;;;16.80;99.90;;;;;;5076739;28;20289;-67
2021/12/30 09:51:46;;;;;;;0.90;0.50;;;16.90;99.90;;;;;;5075345;28;20190;-67
2021/12/30 09:54:12;;;;;;;0.50;0.30;;;16.90;99.90;;;;;;5074842;28;20222;-67
2021/12/30 09:56:40;;;;;;;0.20;0.20;;;16.90;99.90;;;;;;5073969;28;20203;-67
2021/12/30 09:59:10;;;;;;;0.77;0.35;;;17.00;99.90;;;;;;5077588;28;20194;-67
2021/12/30 10:01:40;;;;;;;0.60;0.32;;;17.00;99.90;;;;;;5074863;28;20218;-67
2021/12/30 10:04:07;;;;;;;0.40;0.30;;;17.00;99.90;;;;;;5105660;28;20184;-67
2021/12/30 10:06:44;;;;;;;0.32;0.32;;;17.10;99.90;;;;;;5071718;28;20274;-68
2021/12/30 10:09:15;;;;;;;0.65;0.22;;;17.10;99.90;;;;;;5071841;28;20196;-66
2021/12/30 10:12:00;;;;;;;0.32;0.28;;;17.20;99.90;;;;;;5104704;28;20183;-66
2021/12/30 10:14:34;;;;;;;0.98;0.30;;;17.20;99.90;;;;;;5077237;28;20207;-67
2021/12/30 10:17:21;;;;;;;0.32;0.20;;;17.20;99.90;;;;;;5080763;28;20848;-67
2021/12/30 10:19:49;;;;;;;1.20;0.60;;;17.30;99.90;;;;;;5078129;28;20190;-68
2021/12/30 10:22:18;;;;;;;0.50;0.28;;;17.30;99.90;;;;;;5075380;28;20263;-67
2021/12/30 10:24:45;;;;;;;0.45;0.30;;;17.30;99.90;;;;;;5074739;28;20207;-67
2021/12/30 10:27:25;;;;;;;1.48;0.50;;;17.30;99.90;;;;;;5075558;28;20190;-68
2021/12/30 10:29:53;;;;;;;0.43;0.30;;;17.30;99.90;;;;;;5103522;28;20236;-66
2021/12/30 10:32:24;;;;;;;0.65;0.30;;;17.30;99.90;;;;;;5074509;28;20176;-68
2021/12/30 10:35:15;;;;;;;0.98;0.32;;;17.40;99.90;;;;;;5070787;28;20318;-68
2021/12/30 10:37:46;;;;;;;0.40;0.35;;;17.40;99.90;;;;;;5069726;28;20184;-69
2021/12/30 10:40:27;;;;;;;0.47;0.30;;;17.40;99.90;;;;;;5077273;28;20366;-68
2021/12/30 10:43:18;;;;;;;0.68;0.50;;;17.40;99.90;;;;;;5075958;28;21954;-68
2021/12/30 10:46:02;;;;;;;0.50;0.40;;;17.40;99.90;;;;;;5069906;28;20269;-68
2021/12/30 10:48:27;;;;;;;0.65;0.40;;;17.40;99.90;;;;;;5072008;28;20191;-67
2021/12/30 10:51:35;;;;;;;1.08;0.45;;;17.40;99.90;;;;;;5074982;28;20176;-66
2021/12/30 10:54:20;;;;;;;1.95;0.52;;;17.40;99.90;;;;;;5105837;28;20382;-68
2021/12/30 10:56:48;;;;;;;0.30;0.30;;;17.40;99.90;;;;;;5073994;28;20209;-68
2021/12/30 10:59:22;;;;;;;0.20;0.20;;;17.40;99.90;;;;;;5072850;28;20516;-68
2021/12/30 11:01:52;;;;;;;0.40;0.20;;;17.40;99.90;;;;;;5070800;28;20495;-66
2021/12/30 11:04:22;;;;;;;0.45;0.30;;;17.40;99.90;;;;;;5071110;28;20196;-67
2021/12/30 11:06:53;;;;;;;0.38;0.30;;;17.40;99.90;;;;;;5071528;28;20393;-65
2021/12/30 11:09:22;;;;;;;0.30;0.28;;;17.40;99.90;;;;;;5069767;28;20175;-67
2021/12/30 11:12:01;;;;;;;0.35;0.25;;;17.40;99.90;;;;;;5068374;28;20272;-66
2021/12/30 11:14:32;;;;;;;0.40;0.28;;;17.40;99.90;;;;;;5071973;28;20247;-65
2021/12/30 11:17:05;;;;;;;0.88;0.30;;;17.40;99.90;;;;;;5069933;28;20172;-66
2021/12/30 11:19:35;;;;;;;0.30;0.30;;;17.40;99.90;;;;;;5091535;28;20196;-66
2021/12/30 11:22:03;;;;;;;0.40;0.30;;;17.40;99.90;;;;;;5072442;28;20176;-66
2021/12/30 11:24:30;;;;;;;1.00;0.50;;;17.40;99.90;;;;;;5071010;28;20268;-67
2021/12/30 11:27:00;;;;;;;0.65;0.30;;;17.40;99.90;;;;;;5078522;28;20223;-66
2021/12/30 11:29:28;;;;;;;1.17;0.35;;;17.40;99.90;;;;;;5071579;28;20410;-67
2021/12/30 11:31:54;;;;;;;0.50;0.30;;;17.50;99.90;;;;;;5072042;28;20180;-67
2021/12/30 11:34:22;;;;;;;0.60;0.38;;;17.50;99.90;;;;;;5071358;28;20253;-67
2021/12/30 11:36:48;;;;;;;0.80;0.50;;;17.50;99.90;;;;;;5075644;28;20190;-64
2021/12/30 11:39:20;;;;;;;0.88;0.50;;;17.50;99.90;;;;;;5073578;28;20192;-66
2021/12/30 11:41:59;;;;;;;0.60;0.50;;;17.60;99.90;;;;;;5073693;28;20184;-66
2021/12/30 11:44:55;;;;;;;0.50;0.40;;;17.60;99.90;;;;;;5072848;28;20219;-65
2021/12/30 11:47:36;;;;;;;0.57;0.40;;;17.60;99.90;;;;;;5061747;28;20191;-67
2021/12/30 11:50:07;;;;;;;0.75;0.50;;;17.60;99.90;;;;;;5090730;28;20283;-66
2021/12/30 11:52:53;;;;;;;1.25;0.50;;;17.70;99.90;;;;;;5076937;28;20202;-66
2021/12/30 11:55:47;;;;;;;0.60;0.50;;;17.70;99.90;;;;;;5074921;28;20215;-68
2021/12/30 11:58:28;;;;;;;1.30;0.70;;;17.70;99.90;;;;;;5079291;28;20191;-67
2021/12/30 12:01:13;;;;;;;1.00;0.50;;;17.70;99.90;;;;;;5070698;28;20179;-66
2021/12/30 12:03:46;;;;;;;1.25;0.63;;;17.70;99.90;;;;;;5094572;28;20188;-65
2021/12/30 12:06:38;;;;;;;1.60;0.80;;;17.70;99.90;;;;;;5076249;28;20210;-65
2021/12/30 12:09:13;;;;;;;1.10;0.90;;;17.70;99.90;;;;;;5078673;28;20180;-63
2021/12/30 12:11:44;;;;;;;0.90;0.55;;;17.60;99.90;;;;;;5091010;28;20182;-64
2021/12/30 12:14:18;;;;;;;2.03;0.98;;;17.50;99.90;;;;;;5076852;28;20190;-66
2021/12/30 12:16:55;;;;;;;1.17;0.70;;;17.40;99.90;;;;;;5072174;28;20198;-65
2021/12/30 12:19:53;;;;;;;1.85;0.73;;;17.30;99.90;;;;;;5074693;28;20207;-64
2021/12/30 12:22:19;;;;;;;1.05;0.75;;;17.10;99.90;;;;;;5076201;28;20179;-64
2021/12/30 12:25:20;;;;;;;1.48;0.82;;;17.10;99.90;;;;;;5073694;28;20287;-65
2021/12/30 12:27:51;;;;;;;1.70;1.08;;;17.00;99.90;;;;;;5104014;28;20172;-63
2021/12/30 12:30:37;;;;;;;2.97;0.95;;;16.90;99.90;;;;;;5076531;28;20165;-64
2021/12/30 12:33:26;;;;;;;2.30;1.02;;;16.90;99.90;;;;;;5077585;28;20199;-65
2021/12/30 12:35:54;;;;;;;3.30;0.80;;;16.90;99.90;;;;;;5071674;28;20626;-65
2021/12/30 12:39:00;;;;;;;2.00;0.90;;;16.90;99.90;;;;;;5083432;28;20206;-63
2021/12/30 12:41:25;;;;;;;1.65;0.90;;;16.90;99.90;;;;;;4983955;28;20184;-64
2021/12/30 12:43:57;;;;;;;1.85;0.90;;;17.00;99.90;;;;;;5080480;28;20195;-65
2021/12/30 12:46:42;;;;;;;1.55;0.70;;;17.00;99.90;;;;;;5074191;28;20218;-65
2021/12/30 12:49:10;;;;;;;1.42;0.85;;;17.00;99.90;;;;;;5084565;28;20322;-64
2021/12/30 12:51:48;;;;;;;1.38;1.02;;;17.10;99.90;;;;;;5078394;28;20239;-65
2021/12/30 12:54:14;;;;;;;2.35;0.90;;;17.10;99.90;;;;;;5075384;28;20244;-64
2021/12/30 12:56:42;;;;;;;1.77;0.85;;;17.10;99.90;;;;;;5076162;28;20501;-63
2021/12/30 12:59:12;;;;;;;1.77;0.80;;;17.20;99.90;;;;;;5071193;28;20196;-64